Time;durP1;ratioP1;P1;durP2;ratioP2;P2;SDS_P1;SDS_P2;PMS_P1;PMS_P2;Temp;Humidity;BMP_temperature;BMP_pressure;BME280_temperature;BME280_humidity;BME280_pressure;Samples;Min_cycle;Max_cycle;Signal;HPM_P1;HPM_P2
2021/05/24 00:00:51;;;;;;;6.97;6.45;;;9.20;99.90;;;;;;5020987;28;20208;-83
2021/05/24 00:03:17;;;;;;;7.65;6.95;;;9.20;99.90;;;;;;5020924;28;20207;-82
2021/05/24 00:05:43;;;;;;;7.00;6.35;;;9.10;99.90;;;;;;5021080;28;20208;-83
2021/05/24 00:08:10;;;;;;;5.15;4.65;;;9.10;99.90;;;;;;5021094;28;20223;-83
2021/05/24 00:10:38;;;;;;;5.13;4.72;;;9.10;99.90;;;;;;5020926;28;20210;-83
2021/05/24 00:13:06;;;;;;;4.90;4.22;;;9.10;99.90;;;;;;5020780;28;20203;-83
2021/05/24 00:15:35;;;;;;;5.47;5.07;;;9.00;99.90;;;;;;5020353;28;20208;-83
2021/05/24 00:18:03;;;;;;;5.15;4.85;;;9.00;99.90;;;;;;5020267;28;20203;-83
2021/05/24 00:20:31;;;;;;;5.60;5.10;;;9.00;99.90;;;;;;5021037;28;20215;-83
2021/05/24 00:22:58;;;;;;;6.18;5.57;;;9.00;99.90;;;;;;5022096;28;20212;-82
2021/05/24 00:25:24;;;;;;;6.55;5.85;;;8.90;99.90;;;;;;5021947;28;20222;-83
2021/05/24 00:27:52;;;;;;;5.63;5.13;;;8.90;99.90;;;;;;5022108;28;20235;-83
2021/05/24 00:30:19;;;;;;;4.70;4.30;;;8.90;99.90;;;;;;5021113;28;20224;-82
2021/05/24 00:32:45;;;;;;;5.30;4.90;;;8.90;99.90;;;;;;5021290;28;20212;-81
2021/05/24 00:35:14;;;;;;;4.50;4.10;;;8.90;99.90;;;;;;5021893;28;20208;-83
2021/05/24 00:37:40;;;;;;;5.35;4.55;;;8.80;99.90;;;;;;5028403;28;20203;-79
2021/05/24 00:40:09;;;;;;;5.63;4.95;;;8.80;99.90;;;;;;5037749;28;20228;-78
2021/05/24 00:42:36;;;;;;;4.60;4.25;;;8.70;99.90;;;;;;5037663;28;20207;-78
2021/05/24 00:45:05;;;;;;;5.97;5.55;;;8.70;99.90;;;;;;5030143;28;20203;-83
2021/05/24 00:47:31;;;;;;;6.20;5.60;;;8.70;99.90;;;;;;5021072;28;20231;-83
2021/05/24 00:49:57;;;;;;;8.40;5.57;;;8.70;99.90;;;;;;5021551;28;20227;-81
2021/05/24 00:52:25;;;;;;;5.65;5.18;;;8.70;99.90;;;;;;5020494;28;20207;-80
2021/05/24 00:54:51;;;;;;;6.15;5.60;;;8.70;99.90;;;;;;5021596;28;20210;-83
2021/05/24 00:57:17;;;;;;;5.35;4.85;;;8.60;99.90;;;;;;5021320;28;20604;-83
2021/05/24 00:59:43;;;;;;;5.57;5.10;;;8.60;99.90;;;;;;5021349;28;20229;-83
2021/05/24 01:02:10;;;;;;;4.60;4.30;;;8.60;99.90;;;;;;5020617;28;20677;-81
2021/05/24 01:04:36;;;;;;;9.93;6.22;;;8.60;99.90;;;;;;5019840;28;20203;-81
2021/05/24 01:07:04;;;;;;;5.05;4.70;;;8.60;99.90;;;;;;5019032;28;20206;-81
2021/05/24 01:09:31;;;;;;;6.15;4.70;;;8.60;99.90;;;;;;5019774;28;20579;-81
2021/05/24 01:11:58;;;;;;;4.95;4.45;;;8.60;99.90;;;;;;5018626;28;20691;-80
2021/05/24 01:14:24;;;;;;;5.30;5.00;;;8.60;99.90;;;;;;5018578;28;20233;-80
2021/05/24 01:16:53;;;;;;;6.07;5.45;;;8.60;99.90;;;;;;5018613;28;20672;-79
2021/05/24 01:19:20;;;;;;;6.00;5.40;;;8.60;99.90;;;;;;5018626;28;20227;-80
2021/05/24 01:21:48;;;;;;;7.93;5.72;;;8.60;99.90;;;;;;5018897;28;20239;-78
2021/05/24 01:24:17;;;;;;;7.55;6.85;;;8.60;99.90;;;;;;5019572;28;20214;-80
2021/05/24 01:26:44;;;;;;;6.15;5.65;;;8.50;99.90;;;;;;5019115;28;20212;-79
2021/05/24 01:29:10;;;;;;;6.10;5.50;;;8.50;99.90;;;;;;5019694;28;20277;-80
2021/05/24 01:31:36;;;;;;;5.63;5.10;;;8.50;99.90;;;;;;5016618;28;20206;-80
2021/05/24 01:34:04;;;;;;;5.03;4.60;;;8.50;99.90;;;;;;5018458;28;20206;-80
2021/05/24 01:36:31;;;;;;;5.53;5.13;;;8.50;99.90;;;;;;5018645;28;20217;-80
2021/05/24 01:38:58;;;;;;;4.88;4.50;;;8.50;99.90;;;;;;5018566;28;20274;-80
2021/05/24 01:41:24;;;;;;;5.85;5.35;;;8.50;99.90;;;;;;5017794;28;20567;-80
2021/05/24 01:43:50;;;;;;;4.95;4.43;;;8.50;99.90;;;;;;5018014;28;20626;-78
2021/05/24 01:46:17;;;;;;;4.88;4.53;;;8.50;99.90;;;;;;5018368;28;20692;-80
2021/05/24 01:48:44;;;;;;;5.10;4.65;;;8.50;99.90;;;;;;5017971;28;20224;-80
2021/05/24 01:51:10;;;;;;;8.07;4.57;;;8.50;99.90;;;;;;5017668;28;20680;-81
2021/05/24 01:53:37;;;;;;;4.22;3.63;;;8.40;99.90;;;;;;5018432;28;20214;-80
2021/05/24 01:56:05;;;;;;;4.13;3.72;;;8.40;99.90;;;;;;5018354;28;20618;-80
2021/05/24 01:58:32;;;;;;;4.00;3.45;;;8.40;99.90;;;;;;5017971;28;20231;-80
2021/05/24 02:01:03;;;;;;;3.00;2.80;;;8.40;99.90;;;;;;5017848;28;20208;-80
2021/05/24 02:03:29;;;;;;;4.10;3.35;;;8.40;99.90;;;;;;5018133;28;20207;-80
2021/05/24 02:05:56;;;;;;;3.28;3.17;;;8.30;99.90;;;;;;5018424;28;20211;-80
2021/05/24 02:08:22;;;;;;;3.85;3.55;;;8.30;99.90;;;;;;5017634;28;20281;-80
2021/05/24 02:10:48;;;;;;;3.88;3.20;;;8.30;99.90;;;;;;5018241;28;20211;-79
2021/05/24 02:13:15;;;;;;;3.72;3.38;;;8.30;99.90;;;;;;5017159;28;20210;-80
2021/05/24 02:15:42;;;;;;;3.88;3.25;;;8.30;99.90;;;;;;5017407;28;20210;-80
2021/05/24 02:18:09;;;;;;;5.25;4.85;;;8.20;99.90;;;;;;5018344;28;20253;-79
2021/05/24 02:20:36;;;;;;;3.97;3.65;;;8.20;99.90;;;;;;5017570;28;20242;-79
2021/05/24 02:23:04;;;;;;;3.72;3.50;;;8.20;99.90;;;;;;5018017;28;20211;-79
2021/05/24 02:25:31;;;;;;;3.47;3.28;;;8.20;99.90;;;;;;5018084;28;20207;-80
2021/05/24 02:27:57;;;;;;;4.57;4.25;;;8.20;99.90;;;;;;5017415;28;20210;-80
2021/05/24 02:30:26;;;;;;;4.78;4.13;;;8.20;99.90;;;;;;5017515;28;20207;-80
2021/05/24 02:32:53;;;;;;;4.75;4.35;;;8.20;99.90;;;;;;5017609;28;20265;-79
2021/05/24 02:35:22;;;;;;;4.13;3.58;;;8.20;99.90;;;;;;5017806;28;20300;-80
2021/05/24 02:37:49;;;;;;;3.78;3.38;;;8.20;99.90;;;;;;5017044;28;20230;-81
2021/05/24 02:40:17;;;;;;;4.70;3.88;;;8.20;99.90;;;;;;5016535;28;20576;-81
2021/05/24 02:42:43;;;;;;;5.35;4.85;;;8.20;99.90;;;;;;5018397;28;20237;-80
2021/05/24 02:45:13;;;;;;;4.20;4.00;;;8.20;99.90;;;;;;5021098;28;20312;-80
2021/05/24 02:47:40;;;;;;;5.07;4.57;;;8.20;99.90;;;;;;5021271;28;20633;-80
2021/05/24 02:50:09;;;;;;;6.47;3.92;;;8.20;99.90;;;;;;5021265;28;20234;-80
2021/05/24 02:52:36;;;;;;;4.43;4.03;;;8.20;99.90;;;;;;5020693;28;20211;-80
2021/05/24 02:55:04;;;;;;;4.80;4.50;;;8.20;99.90;;;;;;5021126;28;20211;-80
2021/05/24 02:57:30;;;;;;;4.18;3.88;;;8.20;99.90;;;;;;5020988;28;20226;-80
2021/05/24 02:59:56;;;;;;;3.92;3.63;;;8.20;99.90;;;;;;5021801;28;20226;-79
2021/05/24 03:02:26;;;;;;;4.72;4.43;;;8.30;99.90;;;;;;5020799;28;20204;-80
2021/05/24 03:04:54;;;;;;;3.67;3.20;;;8.30;99.90;;;;;;5021847;28;20214;-79
2021/05/24 03:07:20;;;;;;;3.85;3.55;;;8.30;99.90;;;;;;5021286;28;20210;-80
2021/05/24 03:09:47;;;;;;;4.57;4.15;;;8.40;99.90;;;;;;5021439;28;20238;-80
2021/05/24 03:12:13;;;;;;;4.82;4.43;;;8.40;99.90;;;;;;5021072;28;20218;-80
2021/05/24 03:14:40;;;;;;;4.30;4.00;;;8.40;99.90;;;;;;5020674;28;20208;-80
2021/05/24 03:17:06;;;;;;;4.68;4.28;;;8.40;99.90;;;;;;5021249;28;20211;-80
2021/05/24 03:19:33;;;;;;;4.15;3.85;;;8.40;99.90;;;;;;5020762;28;20693;-80
2021/05/24 03:22:00;;;;;;;5.72;3.63;;;8.40;99.90;;;;;;5021152;28;20211;-80
2021/05/24 03:24:26;;;;;;;5.40;5.00;;;8.40;99.90;;;;;;5020764;28;20273;-80
2021/05/24 03:26:52;;;;;;;4.38;3.65;;;8.50;99.90;;;;;;5021267;28;20693;-78
2021/05/24 03:29:19;;;;;;;4.20;3.80;;;8.50;99.90;;;;;;5020863;28;20266;-80
2021/05/24 03:31:45;;;;;;;4.97;4.57;;;8.50;99.90;;;;;;5021064;28;20234;-80
2021/05/24 03:34:11;;;;;;;4.93;4.57;;;8.50;99.90;;;;;;5021035;28;20222;-80
2021/05/24 03:36:37;;;;;;;6.97;4.18;;;8.50;99.90;;;;;;5020556;28;20218;-80
2021/05/24 03:39:05;;;;;;;4.20;3.80;;;8.40;99.90;;;;;;5020387;28;20231;-80
2021/05/24 03:41:32;;;;;;;3.80;3.60;;;8.50;99.90;;;;;;5020367;28;20249;-80
2021/05/24 03:43:58;;;;;;;4.85;3.85;;;8.50;99.90;;;;;;5020507;28;20590;-80
2021/05/24 03:46:24;;;;;;;3.72;3.42;;;8.50;99.90;;;;;;5020303;28;20578;-80
2021/05/24 03:48:50;;;;;;;3.45;3.15;;;8.50;99.90;;;;;;5020745;28;20231;-80
2021/05/24 03:51:17;;;;;;;5.15;3.75;;;8.50;99.90;;;;;;5020212;28;20214;-79
2021/05/24 03:53:43;;;;;;;3.75;3.00;;;8.50;99.90;;;;;;5019179;28;20204;-80
2021/05/24 03:56:12;;;;;;;4.20;3.90;;;8.60;99.90;;;;;;5019344;28;20211;-79
2021/05/24 03:58:38;;;;;;;4.93;3.20;;;8.60;99.90;;;;;;5019981;28;20231;-80
2021/05/24 04:01:05;;;;;;;4.22;3.45;;;8.60;99.90;;;;;;5020268;28;20199;-79
2021/05/24 04:03:31;;;;;;;3.55;2.60;;;8.60;99.90;;;;;;5019867;28;20307;-80
2021/05/24 04:06:00;;;;;;;2.85;2.65;;;8.60;99.90;;;;;;5019922;28;20219;-79
2021/05/24 04:08:32;;;;;;;5.00;2.95;;;8.70;99.90;;;;;;5019719;28;20331;-80
2021/05/24 04:10:59;;;;;;;3.42;3.15;;;8.70;99.90;;;;;;5020655;28;20677;-79
2021/05/24 04:13:26;;;;;;;3.33;2.67;;;8.70;99.90;;;;;;5019574;28;20227;-80
2021/05/24 04:15:55;;;;;;;2.63;2.42;;;8.70;99.90;;;;;;5019788;28;20207;-80
2021/05/24 04:18:22;;;;;;;2.90;2.70;;;8.70;99.90;;;;;;5019590;28;20236;-80
2021/05/24 04:20:48;;;;;;;3.53;2.80;;;8.80;99.90;;;;;;5019362;28;20215;-80
2021/05/24 04:23:15;;;;;;;2.65;2.53;;;8.90;99.90;;;;;;5019484;28;20207;-81
2021/05/24 04:25:41;;;;;;;3.00;2.35;;;8.90;99.90;;;;;;5019323;28;20213;-80
2021/05/24 04:28:07;;;;;;;3.00;2.72;;;8.90;99.90;;;;;;5019121;28;20204;-80
2021/05/24 04:30:34;;;;;;;2.80;2.60;;;9.00;99.90;;;;;;5019615;28;20214;-80
2021/05/24 04:33:01;;;;;;;3.17;2.97;;;9.00;99.90;;;;;;5019263;28;20212;-79
2021/05/24 04:35:27;;;;;;;2.33;2.13;;;9.10;99.90;;;;;;5019331;28;20212;-80
2021/05/24 04:37:54;;;;;;;2.85;2.50;;;9.10;99.90;;;;;;5019442;28;20704;-79
2021/05/24 04:40:20;;;;;;;2.13;2.03;;;9.10;99.90;;;;;;5019609;28;20228;-80
2021/05/24 04:42:47;;;;;;;2.55;2.45;;;9.10;99.90;;;;;;5019060;28;20207;-80
2021/05/24 04:45:14;;;;;;;3.50;2.70;;;9.20;99.90;;;;;;5019071;28;20580;-80
2021/05/24 04:47:42;;;;;;;2.40;2.15;;;9.20;99.90;;;;;;5019060;28;20211;-80
2021/05/24 04:50:09;;;;;;;4.13;1.90;;;9.30;99.90;;;;;;5018941;28;20892;-79
2021/05/24 04:52:35;;;;;;;2.58;2.10;;;9.40;99.90;;;;;;5018778;28;20220;-80
2021/05/24 04:55:03;;;;;;;1.92;1.83;;;9.50;99.90;;;;;;5019152;28;20203;-79
2021/05/24 04:57:29;;;;;;;2.40;2.20;;;9.50;99.90;;;;;;5019235;28;20208;-79
2021/05/24 04:59:55;;;;;;;2.97;2.13;;;9.60;99.90;;;;;;5018796;28;20228;-78
2021/05/24 05:02:21;;;;;;;2.57;1.90;;;9.70;99.90;;;;;;5018335;28;20212;-80
2021/05/24 05:04:48;;;;;;;3.03;1.90;;;9.70;99.90;;;;;;5018801;28;20478;-80
2021/05/24 05:07:15;;;;;;;2.30;2.10;;;9.80;99.90;;;;;;5018569;28;20459;-80
2021/05/24 05:09:41;;;;;;;2.20;2.05;;;9.90;99.90;;;;;;5018566;28;20228;-79
2021/05/24 05:12:08;;;;;;;1.83;1.73;;;10.00;99.90;;;;;;5018146;28;20212;-79
2021/05/24 05:14:34;;;;;;;2.13;2.03;;;10.10;99.90;;;;;;5018545;28;20530;-80
2021/05/24 05:17:00;;;;;;;2.17;2.00;;;10.20;99.90;;;;;;5018904;28;20488;-79
2021/05/24 05:19:26;;;;;;;2.17;1.80;;;10.30;99.90;;;;;;5017835;28;20489;-80
2021/05/24 05:21:53;;;;;;;2.73;2.50;;;10.40;99.90;;;;;;5018692;28;20449;-80
2021/05/24 05:24:20;;;;;;;2.40;2.20;;;10.50;99.90;;;;;;5020462;28;20455;-78
2021/05/24 05:26:46;;;;;;;2.73;2.53;;;10.60;99.90;;;;;;5020455;28;20452;-79
2021/05/24 05:29:12;;;;;;;3.27;2.30;;;10.70;99.90;;;;;;5021017;28;20463;-78
2021/05/24 05:31:39;;;;;;;3.37;3.17;;;10.80;99.90;;;;;;5019200;28;20452;-80
2021/05/24 05:34:06;;;;;;;5.07;3.20;;;10.90;99.90;;;;;;5018636;28;20453;-80
2021/05/24 05:36:32;;;;;;;3.40;3.10;;;11.00;99.90;;;;;;5018411;28;20455;-80
2021/05/24 05:39:00;;;;;;;3.00;2.73;;;11.10;99.90;;;;;;5018225;28;20496;-79
2021/05/24 05:41:26;;;;;;;2.40;2.20;;;11.20;99.90;;;;;;5017838;28;20950;-80
2021/05/24 05:43:53;;;;;;;2.67;2.47;;;11.30;99.90;;;;;;5018149;28;20463;-79
2021/05/24 05:46:19;;;;;;;2.60;2.40;;;11.40;99.90;;;;;;5018118;28;21153;-80
2021/05/24 05:48:45;;;;;;;1.90;1.80;;;11.50;99.90;;;;;;5018098;28;20484;-80
2021/05/24 05:51:11;;;;;;;2.47;2.30;;;11.60;99.90;;;;;;5018143;28;20461;-80
2021/05/24 05:53:38;;;;;;;2.20;2.10;;;11.60;99.90;;;;;;5017143;28;20467;-80
2021/05/24 05:56:06;;;;;;;1.93;1.83;;;11.70;99.90;;;;;;5017958;28;20452;-80
2021/05/24 05:58:32;;;;;;;2.27;2.07;;;11.80;99.90;;;;;;5017148;28;20501;-80
2021/05/24 06:01:03;;;;;;;2.43;1.60;;;11.80;99.90;;;;;;5017910;28;20461;-79
2021/05/24 06:03:29;;;;;;;2.17;2.07;;;11.90;99.90;;;;;;5017793;28;20458;-80
2021/05/24 06:05:55;;;;;;;2.20;2.00;;;12.00;99.90;;;;;;5018233;28;20459;-79
2021/05/24 06:08:21;;;;;;;2.33;1.90;;;12.10;99.90;;;;;;5017930;28;20469;-80
2021/05/24 06:10:48;;;;;;;3.53;3.00;;;12.20;99.90;;;;;;5017989;28;20483;-80
2021/05/24 06:13:15;;;;;;;5.30;2.20;;;12.30;99.90;;;;;;5017680;28;20454;-80
2021/05/24 06:15:41;;;;;;;3.13;2.57;;;12.40;99.50;;;;;;5019290;28;20453;-78
2021/05/24 06:18:08;;;;;;;5.17;2.60;;;12.50;99.40;;;;;;5018993;28;20543;-79
2021/05/24 06:20:34;;;;;;;2.93;2.20;;;12.50;99.10;;;;;;5020227;28;20997;-79
2021/05/24 06:23:00;;;;;;;3.23;2.10;;;12.50;98.50;;;;;;5019403;28;20453;-79
2021/05/24 06:25:26;;;;;;;4.30;3.17;;;12.60;98.50;;;;;;5018078;28;20545;-80
2021/05/24 06:27:52;;;;;;;3.67;2.60;;;12.60;98.00;;;;;;5018467;28;20519;-80
2021/05/24 06:30:20;;;;;;;3.47;2.50;;;12.70;97.90;;;;;;5017764;28;20478;-80
2021/05/24 06:32:46;;;;;;;4.10;2.80;;;12.80;98.30;;;;;;5017057;28;20503;-80
2021/05/24 06:35:13;;;;;;;9.23;3.10;;;12.90;98.40;;;;;;5017732;28;20461;-80
2021/05/24 06:37:39;;;;;;;3.47;2.80;;;13.00;98.30;;;;;;5017645;28;20469;-80
2021/05/24 06:40:07;;;;;;;6.10;3.13;;;13.10;98.30;;;;;;5017457;28;20548;-80
2021/05/24 06:42:33;;;;;;;3.33;2.90;;;13.30;98.00;;;;;;5017951;28;20461;-80
2021/05/24 06:44:59;;;;;;;3.57;3.13;;;13.30;97.80;;;;;;5017581;28;20487;-80
2021/05/24 06:47:26;;;;;;;3.20;2.90;;;13.50;97.60;;;;;;5017450;28;20825;-80
2021/05/24 06:49:53;;;;;;;3.63;2.90;;;13.60;97.70;;;;;;5016689;28;20555;-80
2021/05/24 06:52:19;;;;;;;3.33;2.40;;;13.80;97.90;;;;;;5017008;28;20454;-80
2021/05/24 06:54:45;;;;;;;3.03;2.53;;;13.90;97.30;;;;;;5017167;28;20826;-80
2021/05/24 06:57:11;;;;;;;3.53;2.60;;;14.10;97.00;;;;;;5016786;28;20448;-80
2021/05/24 06:59:38;;;;;;;3.97;2.80;;;14.20;96.70;;;;;;5017232;28;20490;-80
2021/05/24 07:02:05;;;;;;;4.37;3.10;;;14.30;96.70;;;;;;5017599;28;21000;-80
2021/05/24 07:04:32;;;;;;;2.33;2.10;;;14.40;96.70;;;;;;5016351;28;20442;-79
2021/05/24 07:06:58;;;;;;;2.33;2.13;;;14.50;96.80;;;;;;5016563;28;20450;-80
2021/05/24 07:09:24;;;;;;;4.33;3.03;;;14.50;96.40;;;;;;5015946;28;20466;-80
2021/05/24 07:11:50;;;;;;;3.07;2.77;;;14.70;96.60;;;;;;5016721;28;20450;-80
2021/05/24 07:14:17;;;;;;;3.80;3.00;;;14.80;96.50;;;;;;5016098;28;21128;-80
2021/05/24 07:16:43;;;;;;;4.20;2.50;;;14.90;96.60;;;;;;5016419;28;20462;-80
2021/05/24 07:19:09;;;;;;;3.10;2.50;;;15.00;96.10;;;;;;5016860;28;20500;-81
2021/05/24 07:21:36;;;;;;;3.17;2.90;;;15.10;96.10;;;;;;5016095;28;20453;-80
2021/05/24 07:24:03;;;;;;;3.90;2.60;;;15.10;95.90;;;;;;5016337;28;20458;-80
2021/05/24 07:26:29;;;;;;;5.80;2.97;;;15.20;96.10;;;;;;5016598;28;20464;-80
2021/05/24 07:28:55;;;;;;;2.90;2.63;;;15.20;95.70;;;;;;5018382;28;20473;-80
2021/05/24 07:31:22;;;;;;;2.10;2.00;;;15.30;95.80;;;;;;5020267;28;20461;-80
2021/05/24 07:33:48;;;;;;;3.47;2.40;;;15.40;94.80;;;;;;5019766;28;20453;-80
2021/05/24 07:36:14;;;;;;;3.07;2.77;;;15.40;95.30;;;;;;5019681;28;20446;-80
2021/05/24 07:38:41;;;;;;;2.83;2.50;;;15.50;94.80;;;;;;5020239;28;20484;-80
2021/05/24 07:41:07;;;;;;;6.07;2.33;;;15.70;95.10;;;;;;5029206;28;20974;-80
2021/05/24 07:43:33;;;;;;;2.40;2.20;;;15.80;94.90;;;;;;5026389;28;20450;-80
2021/05/24 07:45:59;;;;;;;4.47;2.57;;;15.90;94.60;;;;;;5033054;28;20977;-80
2021/05/24 07:48:26;;;;;;;3.33;2.97;;;16.00;94.60;;;;;;5038119;28;20465;-80
2021/05/24 07:50:52;;;;;;;2.33;2.13;;;16.00;94.90;;;;;;5030955;28;20449;-80
2021/05/24 07:53:18;;;;;;;2.37;2.17;;;16.10;94.50;;;;;;5028675;28;20484;-80
2021/05/24 07:55:45;;;;;;;2.00;1.90;;;16.20;94.70;;;;;;5027569;28;20447;-80
2021/05/24 07:58:12;;;;;;;2.60;2.20;;;16.20;94.20;;;;;;5028251;28;20485;-79
2021/05/24 08:00:39;;;;;;;2.43;2.27;;;16.30;94.20;;;;;;5029614;28;20454;-81
2021/05/24 08:03:05;;;;;;;2.63;2.27;;;16.40;93.80;;;;;;5027935;28;20459;-80
2021/05/24 08:05:31;;;;;;;1.80;1.70;;;16.40;93.90;;;;;;5020756;28;20458;-80
2021/05/24 08:07:57;;;;;;;2.27;2.07;;;16.50;94.10;;;;;;5020113;28;20459;-80
2021/05/24 08:10:23;;;;;;;2.03;1.40;;;16.60;94.00;;;;;;5020479;28;20471;-80
2021/05/24 08:12:50;;;;;;;2.63;1.87;;;16.70;93.30;;;;;;5020118;28;20510;-80
2021/05/24 08:15:28;;;;;;;7.10;2.73;;;16.80;93.30;;;;;;5025658;28;20463;-79
2021/05/24 08:17:54;;;;;;;2.67;2.50;;;16.90;94.00;;;;;;5025333;28;20530;-80
2021/05/24 08:20:20;;;;;;;3.03;2.20;;;17.10;93.50;;;;;;5020265;28;20539;-80
2021/05/24 08:22:47;;;;;;;2.20;2.00;;;17.10;92.50;;;;;;5020022;28;20836;-79
2021/05/24 08:25:13;;;;;;;1.80;1.27;;;17.20;92.00;;;;;;5020624;28;20456;-80
2021/05/24 08:27:40;;;;;;;2.03;1.83;;;17.40;90.70;;;;;;5019835;28;20460;-80
2021/05/24 08:30:09;;;;;;;1.50;1.40;;;17.40;89.50;;;;;;5020581;28;20473;-80
2021/05/24 08:32:36;;;;;;;1.47;1.20;;;17.50;90.40;;;;;;5019879;28;20490;-80
2021/05/24 08:35:02;;;;;;;2.97;1.93;;;17.60;89.70;;;;;;5019599;28;20459;-80
2021/05/24 08:37:28;;;;;;;1.27;1.10;;;17.70;87.80;;;;;;5019677;28;20460;-80
2021/05/24 08:39:55;;;;;;;1.03;0.87;;;17.80;87.50;;;;;;5019920;28;20511;-79
2021/05/24 08:42:23;;;;;;;1.13;1.00;;;17.80;85.30;;;;;;5020779;28;20948;-82
2021/05/24 08:44:49;;;;;;;1.20;1.20;;;17.80;85.90;;;;;;5025073;28;21011;-81
2021/05/24 08:47:18;;;;;;;1.73;1.30;;;17.80;84.60;;;;;;5026686;28;20460;-84
2021/05/24 08:49:45;;;;;;;0.93;0.67;;;17.80;85.80;;;;;;5029499;28;20484;-84
2021/05/24 08:52:12;;;;;;;1.00;1.00;;;17.80;85.10;;;;;;5038359;28;20787;-84
2021/05/24 08:54:38;;;;;;;2.80;1.80;;;17.70;86.00;;;;;;5038741;28;20483;-83
2021/05/24 08:57:05;;;;;;;1.03;1.03;;;17.80;87.50;;;;;;5038444;28;21091;-83
2021/05/24 08:59:31;;;;;;;1.00;0.87;;;17.90;85.80;;;;;;5037478;28;20569;-83
2021/05/24 09:01:58;;;;;;;1.20;1.10;;;17.90;85.60;;;;;;5039925;28;20455;-83
2021/05/24 09:04:40;;;;;;;1.27;1.17;;;18.00;86.00;;;;;;5041271;28;20486;-86
2021/05/24 09:07:07;;;;;;;1.47;1.07;;;18.10;87.90;;;;;;5039164;28;20463;-84
2021/05/24 09:36:51;;;;;;;1.30;1.20;;;20.00;80.80;;;;;;4856511;29;20526;-84
2021/05/24 09:50:29;;;;;;;1.30;1.20;;;21.00;78.80;;;;;;4880820;29;20594;-83
2021/05/24 09:53:47;;;;;;;0.90;0.90;;;21.20;78.10;;;;;;4880951;29;20457;-84
2021/05/24 10:01:02;;;;;;;;;;;;;;;;;;;;;
2021/05/24 10:03:46;;;;;;;0.83;0.83;;;21.30;73.10;;;;;;5056505;28;20527;-83
2021/05/24 10:12:59;;;;;;;0.70;0.70;;;21.50;69.80;;;;;;4994988;28;20507;-83
2021/05/24 10:16:12;;;;;;;1.37;0.63;;;21.40;66.70;;;;;;4994887;28;20591;-84
2021/05/24 10:24:02;;;;;;;0.70;0.70;;;21.20;66.40;;;;;;5053970;28;20456;-82
2021/05/24 10:26:40;;;;;;;1.43;1.00;;;21.00;67.30;;;;;;5057577;28;20830;-82
2021/05/24 10:29:09;;;;;;;0.80;0.80;;;21.10;68.30;;;;;;5055263;28;20498;-81
2021/05/24 10:31:36;;;;;;;1.00;0.83;;;21.20;67.70;;;;;;5055338;28;20460;-81
2021/05/24 10:34:13;;;;;;;0.93;0.93;;;21.30;70.30;;;;;;5055956;28;20451;-81
2021/05/24 10:36:50;;;;;;;0.90;0.70;;;21.40;71.50;;;;;;5057035;28;20464;-81
2021/05/24 10:39:33;;;;;;;1.00;1.00;;;21.50;68.20;;;;;;5054940;28;20541;-82
2021/05/24 10:43:12;;;;;;;;;;;;;;;;;;;;;
2021/05/24 10:52:47;;;;;;;1.37;0.90;;;21.90;62.90;;;;;;4974279;28;20992;-80
2021/05/24 10:58:24;;;;;;;1.10;0.90;;;21.90;60.90;;;;;;5036578;28;21019;-80
2021/05/24 15:26:52;;;;;;;1.13;1.03;;;20.30;54.90;;;;;;5041959;28;20437;-86
2021/05/24 15:29:26;;;;;;;0.80;0.80;;;20.20;55.40;;;;;;5061917;28;20518;-83
2021/05/24 15:32:18;;;;;;;0.90;0.90;;;20.10;55.00;;;;;;5062800;28;20433;-82
2021/05/24 15:34:57;;;;;;;0.90;0.90;;;20.20;55.40;;;;;;5060854;28;20458;-84
2021/05/24 15:40:47;;;;;;;1.33;1.23;;;20.20;56.10;;;;;;5030255;28;20925;-83
2021/05/24 15:43:20;;;;;;;1.23;1.13;;;20.20;56.20;;;;;;5059831;28;20452;-80
2021/05/24 15:48:49;;;;;;;1.40;1.23;;;20.30;56.20;;;;;;5008152;28;20473;-80
2021/05/24 15:51:26;;;;;;;1.33;1.00;;;20.40;56.10;;;;;;5050835;28;20449;-81
2021/05/24 15:54:08;;;;;;;;;;;;;;;;;;;;;
2021/05/24 15:56:54;;;;;;;1.30;0.70;;;20.50;56.20;;;;;;5053462;28;20572;-82
2021/05/24 15:59:47;;;;;;;1.00;0.93;;;20.60;56.90;;;;;;5052470;28;20469;-82
2021/05/24 16:02:22;;;;;;;1.37;0.90;;;20.70;56.10;;;;;;5053591;28;20435;-83
2021/05/24 16:04:52;;;;;;;0.70;0.67;;;20.70;55.80;;;;;;5053042;28;20863;-81
2021/05/24 16:07:29;;;;;;;1.50;1.20;;;20.70;55.60;;;;;;5054944;28;20449;-81
2021/05/24 16:13:23;;;;;;;4.10;2.37;;;20.10;59.10;;;;;;5007131;28;20519;-82
2021/05/24 16:23:36;;;;;;;1.83;1.23;;;18.40;63.80;;;;;;4966540;28;20463;-81
2021/05/24 16:32:43;;;;;;;2.20;1.17;;;17.20;69.70;;;;;;4804214;29;20824;-81
2021/05/24 16:35:12;;;;;;;1.87;1.23;;;16.80;72.20;;;;;;4905468;29;20461;-81
2021/05/24 16:45:52;;;;;;;2.80;1.93;;;16.10;76.20;;;;;;4928465;29;20427;-82
2021/05/24 16:49:05;;;;;;;1.77;1.50;;;16.00;77.20;;;;;;4947071;28;20520;-81
2021/05/24 16:51:42;;;;;;;1.20;1.10;;;15.90;77.60;;;;;;5049134;28;20523;-82
2021/05/24 16:54:08;;;;;;;1.27;1.27;;;15.90;79.20;;;;;;5058696;28;20487;-80
2021/05/24 16:56:35;;;;;;;2.80;1.10;;;15.70;79.50;;;;;;5059237;28;20935;-81
2021/05/24 16:59:01;;;;;;;1.33;1.23;;;15.60;80.50;;;;;;5060396;28;20460;-80
2021/05/24 17:01:28;;;;;;;1.90;1.10;;;15.50;81.60;;;;;;5060673;28;20453;-80
2021/05/24 17:04:00;;;;;;;1.30;1.20;;;15.40;82.40;;;;;;5060825;28;20465;-79
2021/05/24 17:06:26;;;;;;;1.90;1.33;;;15.10;83.00;;;;;;5059865;28;20949;-82
2021/05/24 17:14:59;;;;;;;1.50;1.40;;;14.90;85.80;;;;;;5049519;28;20970;-81
2021/05/24 17:17:29;;;;;;;1.20;1.10;;;14.90;86.50;;;;;;5057002;28;20441;-82
2021/05/24 17:20:21;;;;;;;3.00;1.70;;;14.90;87.70;;;;;;5052700;28;20488;-81
2021/05/24 17:22:51;;;;;;;1.97;1.50;;;14.80;87.80;;;;;;5034698;28;20461;-82
2021/05/24 17:28:14;;;;;;;2.10;1.40;;;14.70;89.20;;;;;;5026027;28;20443;-82
2021/05/24 17:36:56;;;;;;;;;;;;;;;;;;;;;
2021/05/24 17:40:08;;;;;;;;;;;;;;;;;;;;;
2021/05/24 17:43:16;;;;;;;1.60;1.23;;;14.70;90.90;;;;;;4993401;28;20534;-83
2021/05/24 17:45:44;;;;;;;1.60;1.50;;;14.60;91.00;;;;;;5009479;28;20525;-80
2021/05/24 17:48:44;;;;;;;3.00;2.03;;;14.60;91.30;;;;;;5037706;28;20457;-81
2021/05/24 17:54:38;;;;;;;1.87;1.60;;;14.40;91.90;;;;;;5013430;28;20800;-80
2021/05/24 17:57:04;;;;;;;4.17;2.00;;;14.50;92.30;;;;;;5050989;28;20438;-79
2021/05/24 17:59:31;;;;;;;1.83;1.50;;;14.40;92.40;;;;;;5054620;28;20476;-82
2021/05/24 18:01:58;;;;;;;2.50;1.80;;;14.40;92.50;;;;;;5054744;28;20445;-82
2021/05/24 18:04:24;;;;;;;2.20;2.00;;;14.50;92.90;;;;;;5042380;28;20448;-82
2021/05/24 18:06:50;;;;;;;1.73;1.63;;;14.60;92.90;;;;;;5039433;28;20461;-83
2021/05/24 18:09:16;;;;;;;3.67;2.47;;;14.60;92.90;;;;;;5038190;28;20544;-83
2021/05/24 18:11:43;;;;;;;2.10;1.50;;;14.60;93.40;;;;;;5037817;28;20483;-83
2021/05/24 18:14:11;;;;;;;1.53;1.37;;;14.70;93.70;;;;;;5039048;28;20449;-83
2021/05/24 18:16:38;;;;;;;1.83;1.60;;;14.80;93.50;;;;;;5038404;28;20538;-83
2021/05/24 18:19:07;;;;;;;2.97;2.77;;;14.90;93.80;;;;;;5038296;28;20476;-83
2021/05/24 18:21:33;;;;;;;2.67;2.47;;;15.00;94.50;;;;;;5038492;28;20457;-83
2021/05/24 18:23:59;;;;;;;2.70;2.17;;;15.00;94.90;;;;;;5037634;28;20453;-83
2021/05/24 18:26:25;;;;;;;1.73;1.63;;;15.10;95.10;;;;;;5038748;28;20458;-84
2021/05/24 18:28:55;;;;;;;1.90;1.40;;;15.10;95.30;;;;;;5038227;28;20546;-85
2021/05/24 18:31:21;;;;;;;3.97;1.60;;;15.20;94.90;;;;;;5038309;28;20453;-84
2021/05/24 18:33:47;;;;;;;2.83;1.30;;;15.20;94.40;;;;;;5037244;28;20454;-84
2021/05/24 18:36:16;;;;;;;1.93;1.67;;;15.20;93.70;;;;;;5037077;28;20461;-83
2021/05/24 18:38:42;;;;;;;2.30;1.87;;;15.20;94.10;;;;;;5036528;28;21028;-82
2021/05/24 18:41:10;;;;;;;3.27;2.33;;;15.30;94.30;;;;;;5036190;28;20453;-83
2021/05/24 18:43:39;;;;;;;2.30;2.13;;;15.30;93.60;;;;;;5036351;28;20457;-83
2021/05/24 18:46:05;;;;;;;1.80;1.63;;;15.40;94.40;;;;;;5036516;28;20460;-83
2021/05/24 18:48:31;;;;;;;3.23;1.67;;;15.40;93.70;;;;;;5036401;28;20475;-83
2021/05/24 18:50:59;;;;;;;3.53;2.07;;;15.50;94.30;;;;;;5036298;28;20852;-81
2021/05/24 18:53:26;;;;;;;2.00;1.83;;;15.50;94.40;;;;;;5039161;28;20465;-82
2021/05/24 18:55:54;;;;;;;3.70;2.20;;;15.50;94.80;;;;;;5037777;28;20934;-83
2021/05/24 18:58:21;;;;;;;2.10;1.60;;;15.60;94.80;;;;;;5037942;28;20458;-80
2021/05/24 19:00:47;;;;;;;1.97;1.87;;;15.60;94.20;;;;;;5038616;28;20442;-81
2021/05/24 19:03:24;;;;;;;2.27;1.47;;;15.70;94.60;;;;;;5040677;28;20450;-82
2021/05/24 19:06:07;;;;;;;2.90;2.10;;;15.70;94.60;;;;;;5040784;28;20462;-83
2021/05/24 19:08:35;;;;;;;2.93;1.80;;;15.60;94.50;;;;;;5040714;28;20538;-82
2021/05/24 19:11:04;;;;;;;1.93;1.83;;;15.60;94.10;;;;;;5036846;28;20482;-82
2021/05/24 19:13:31;;;;;;;2.60;1.73;;;15.60;94.30;;;;;;5037215;28;20457;-83
2021/05/24 19:15:58;;;;;;;2.43;1.77;;;15.50;94.50;;;;;;5036787;28;20445;-83
2021/05/24 19:18:25;;;;;;;2.00;1.50;;;15.50;94.60;;;;;;5036048;28;20982;-82
2021/05/24 19:20:51;;;;;;;1.77;1.67;;;15.40;94.60;;;;;;5039250;28;20970;-79
2021/05/24 19:23:18;;;;;;;3.33;1.93;;;15.40;95.10;;;;;;5039521;28;20453;-83
2021/05/24 19:25:46;;;;;;;1.80;1.70;;;15.40;95.30;;;;;;5043571;28;20486;-83
2021/05/24 19:28:15;;;;;;;2.07;1.60;;;15.30;95.00;;;;;;5045824;28;20966;-83